Cordelia — A8TL8 — position and weather

sailwx.info

Track history (hours):
 
Tides and Currents Weather Stations Pressure Air Temp Water Temp Dewpoint Dewpoint Depression Visibility Wind Speed Wind Dir Waves Ship Positions

Cordelia

Last reported at 2018-Jul-08 03:37 UTC. Time now 2018-Aug-21 03:56 UTC.
Position N 23°15' E 117°42'.
Warning: this ship's position is 44 days out of date.

Length 222 m; draft 9.1 m.

Type: Ship. MMSI: 636091837.

Date/timePositionNaut miles runAvg speedWind from/ knotsBaromVisibWave heightAir tempDewpointWater temp
2018-Jul-08 03:37N 23°15' E 117°42'317.5
2018-Jul-08 03:25N 23°17' E 117°45'717.6
2018-Jul-08 03:00N 23°20' E 117°53'  
2018-Jul-02 03:24N 35°06' E 129°05'0 0.0
2018-Jul-02 02:52N 35°06' E 129°05'0 0.0
2018-Jul-02 00:49N 35°06' E 129°05'0 0.0
2018-Jul-01 17:42N 35°06' E 129°05'0 0.0
2018-Jul-01 17:30N 35°06' E 129°05'0 0.0
2018-Jul-01 17:00N 35°06' E 129°05'0 0.0
2018-Jul-01 16:30N 35°06' E 129°05'0 0.0
2018-Jul-01 16:00N 35°06' E 129°05'1 1.1
2018-Jul-01 15:30N 35°06' E 129°05'3 6.3
2018-Jul-01 15:00N 35°04' E 129°09'3 6.5
2018-Jul-01 14:30N 35°03' E 129°12'290 6.7
2018-Jun-29 19:13N 33°54' E 134°54'311.8
2018-Jun-29 19:00N 33°57' E 134°54'612.1
2018-Jun-29 18:30N 34°03' E 134°56'612.1
2018-Jun-29 18:00N 34°09' E 134°57'611.6
2018-Jun-29 17:30N 34°14' E 134°57'714.5
2018-Jun-29 17:01N 34°21' E 134°60'917.9
2018-Jun-29 16:31N 34°28' E 135°07'1019.1
2018-Jun-29 16:01N 34°35' E 135°15'510.0
2018-Jun-29 15:30N 34°40' E 135°14'0 0.6
2018-Jun-29 15:00N 34°40' E 135°14'0 0.0
2018-Jun-29 14:30N 34°40' E 135°14'0 0.0
2018-Jun-29 14:00N 34°40' E 135°14'0 0.0
2018-Jun-29 13:30N 34°40' E 135°14'0 0.0
2018-Jun-29 13:00N 34°40' E 135°14'0 0.0
2018-Jun-29 12:30N 34°40' E 135°14'0 0.0
2018-Jun-29 12:00N 34°40' E 135°14'0 0.0
2018-Jun-29 11:30N 34°40' E 135°14'0 0.0
2018-Jun-29 11:00N 34°40' E 135°14'0 0.0
2018-Jun-29 10:30N 34°40' E 135°14'0 0.0
2018-Jun-29 10:00N 34°40' E 135°14'0 0.0
2018-Jun-29 09:30N 34°40' E 135°14'0 0.0
2018-Jun-29 08:54N 34°40' E 135°14'0 0.0
2018-Jun-29 08:30N 34°40' E 135°14'0 0.0
2018-Jun-29 08:00N 34°40' E 135°14'0 0.0
2018-Jun-29 07:30N 34°40' E 135°14'0 1.0
2018-Jun-29 07:00N 34°40' E 135°15'3 5.5
2018-Jun-29 06:30N 34°38' E 135°17'3 5.7
2018-Jun-29 06:00N 34°38' E 135°21'2 5.0
2018-Jun-29 05:30N 34°39' E 135°24'0 0.0
2018-Jun-29 04:52N 34°39' E 135°24'0 0.0
2018-Jun-29 04:28N 34°39' E 135°24'0 0.0
2018-Jun-29 03:58N 34°39' E 135°24'0 0.0
2018-Jun-29 03:28N 34°39' E 135°24'0 0.0
2018-Jun-29 02:58N 34°39' E 135°24'0 0.0
2018-Jun-29 02:28N 34°39' E 135°24'0 0.0
2018-Jun-29 01:58N 34°39' E 135°24'0 0.0
2018-Jun-29 01:28N 34°39' E 135°24'0 0.0
2018-Jun-29 00:55N 34°39' E 135°24'0 0.0
2018-Jun-29 00:28N 34°39' E 135°24'0 0.0
2018-Jun-28 23:58N 34°39' E 135°24'0 0.0
2018-Jun-28 23:28N 34°39' E 135°24'0 0.0
2018-Jun-28 22:58N 34°39' E 135°24'0 0.0
2018-Jun-28 22:28N 34°39' E 135°24'0 0.0
2018-Jun-28 21:58N 34°39' E 135°24'0 0.0
2018-Jun-28 21:28N 34°39' E 135°24'0 0.0
2018-Jun-28 20:58N 34°39' E 135°24'0 0.0
2018-Jun-28 20:28N 34°39' E 135°24'0 0.0
2018-Jun-28 19:55N 34°39' E 135°24'0 0.0
2018-Jun-28 19:25N 34°39' E 135°24'0 0.0
2018-Jun-28 18:58N 34°39' E 135°24'0 0.0
2018-Jun-28 18:28N 34°39' E 135°24'0 0.0
2018-Jun-28 17:58N 34°39' E 135°24'0 0.0
2018-Jun-28 17:25N 34°39' E 135°24'0 0.0
2018-Jun-28 16:58N 34°39' E 135°24'0 0.0
2018-Jun-28 16:28N 34°39' E 135°24'0 0.0
2018-Jun-28 15:58N 34°39' E 135°24'0 0.0
2018-Jun-28 15:28N 34°39' E 135°24'0 0.0
2018-Jun-28 14:58N 34°39' E 135°24'0 0.0
2018-Jun-28 14:28N 34°39' E 135°24'0 0.0
2018-Jun-28 13:58N 34°39' E 135°24'0 0.0
2018-Jun-28 13:28N 34°39' E 135°24'0 0.3
2018-Jun-28 13:01N 34°39' E 135°24'4 8.5
2018-Jun-28 12:31N 34°36' E 135°20'816.6
2018-Jun-28 12:01N 34°30' E 135°13'1020.3
2018-Jun-28 11:31N 34°22' E 135°05'714.6
2018-Jun-28 11:00N 34°17' E 134°59'918.5
2018-Jun-28 10:30N 34°07' E 134°59'1020.3
2018-Jun-28 10:00N 33°57' E 134°58'1120.0
2018-Jun-28 09:29N 33°47' E 134°55'  
Track history (hours):
 
Tides and Currents Weather Stations Pressure Air Temp Water Temp Dewpoint Dewpoint Depression Visibility Wind Speed Wind Dir Waves Ship Positions

Cordelia

Last reported at 2018-Jul-08 03:37 UTC. Time now 2018-Aug-21 03:56 UTC.
Position N 23°15' E 117°42'.
Warning: this ship's position is 44 days out of date.

Length 222 m; draft 9.1 m.

Type: Ship. MMSI: 636091837.

Date/timePositionNaut miles runAvg speedWind from/ knotsBaromVisibWave heightAir tempDewpointWater temp
2018-Jul-08 03:37N 23°15' E 117°42'317.5
2018-Jul-08 03:25N 23°17' E 117°45'717.6
2018-Jul-08 03:00N 23°20' E 117°53'  
2018-Jul-02 03:24N 35°06' E 129°05'0 0.0
2018-Jul-02 02:52N 35°06' E 129°05'0 0.0
2018-Jul-02 00:49N 35°06' E 129°05'0 0.0
2018-Jul-01 17:42N 35°06' E 129°05'0 0.0
2018-Jul-01 17:30N 35°06' E 129°05'0 0.0
2018-Jul-01 17:00N 35°06' E 129°05'0 0.0
2018-Jul-01 16:30N 35°06' E 129°05'0 0.0
2018-Jul-01 16:00N 35°06' E 129°05'1 1.1
2018-Jul-01 15:30N 35°06' E 129°05'3 6.3
2018-Jul-01 15:00N 35°04' E 129°09'3 6.5
2018-Jul-01 14:30N 35°03' E 129°12'290 6.7
2018-Jun-29 19:13N 33°54' E 134°54'311.8
2018-Jun-29 19:00N 33°57' E 134°54'612.1
2018-Jun-29 18:30N 34°03' E 134°56'612.1
2018-Jun-29 18:00N 34°09' E 134°57'611.6
2018-Jun-29 17:30N 34°14' E 134°57'714.5
2018-Jun-29 17:01N 34°21' E 134°60'917.9
2018-Jun-29 16:31N 34°28' E 135°07'1019.1
2018-Jun-29 16:01N 34°35' E 135°15'510.0
2018-Jun-29 15:30N 34°40' E 135°14'0 0.6
2018-Jun-29 15:00N 34°40' E 135°14'0 0.0
2018-Jun-29 14:30N 34°40' E 135°14'0 0.0
2018-Jun-29 14:00N 34°40' E 135°14'0 0.0
2018-Jun-29 13:30N 34°40' E 135°14'0 0.0
2018-Jun-29 13:00N 34°40' E 135°14'0 0.0
2018-Jun-29 12:30N 34°40' E 135°14'0 0.0
2018-Jun-29 12:00N 34°40' E 135°14'0 0.0
2018-Jun-29 11:30N 34°40' E 135°14'0 0.0
2018-Jun-29 11:00N 34°40' E 135°14'0 0.0
2018-Jun-29 10:30N 34°40' E 135°14'0 0.0
2018-Jun-29 10:00N 34°40' E 135°14'0 0.0
2018-Jun-29 09:30N 34°40' E 135°14'0 0.0
2018-Jun-29 08:54N 34°40' E 135°14'0 0.0
2018-Jun-29 08:30N 34°40' E 135°14'0 0.0
2018-Jun-29 08:00N 34°40' E 135°14'0 0.0
2018-Jun-29 07:30N 34°40' E 135°14'0 1.0
2018-Jun-29 07:00N 34°40' E 135°15'3 5.5
2018-Jun-29 06:30N 34°38' E 135°17'3 5.7
2018-Jun-29 06:00N 34°38' E 135°21'2 5.0
2018-Jun-29 05:30N 34°39' E 135°24'0 0.0
2018-Jun-29 04:52N 34°39' E 135°24'0 0.0
2018-Jun-29 04:28N 34°39' E 135°24'0 0.0
2018-Jun-29 03:58N 34°39' E 135°24'0 0.0
2018-Jun-29 03:28N 34°39' E 135°24'0 0.0
2018-Jun-29 02:58N 34°39' E 135°24'0 0.0
2018-Jun-29 02:28N 34°39' E 135°24'0 0.0
2018-Jun-29 01:58N 34°39' E 135°24'0 0.0
2018-Jun-29 01:28N 34°39' E 135°24'0 0.0
2018-Jun-29 00:55N 34°39' E 135°24'0 0.0
2018-Jun-29 00:28N 34°39' E 135°24'0 0.0
2018-Jun-28 23:58N 34°39' E 135°24'0 0.0
2018-Jun-28 23:28N 34°39' E 135°24'0 0.0
2018-Jun-28 22:58N 34°39' E 135°24'0 0.0
2018-Jun-28 22:28N 34°39' E 135°24'0 0.0
2018-Jun-28 21:58N 34°39' E 135°24'0 0.0
2018-Jun-28 21:28N 34°39' E 135°24'0 0.0
2018-Jun-28 20:58N 34°39' E 135°24'0 0.0
2018-Jun-28 20:28N 34°39' E 135°24'0 0.0
2018-Jun-28 19:55N 34°39' E 135°24'0 0.0
2018-Jun-28 19:25N 34°39' E 135°24'0 0.0
2018-Jun-28 18:58N 34°39' E 135°24'0 0.0
2018-Jun-28 18:28N 34°39' E 135°24'0 0.0
2018-Jun-28 17:58N 34°39' E 135°24'0 0.0
2018-Jun-28 17:25N 34°39' E 135°24'0 0.0
2018-Jun-28 16:58N 34°39' E 135°24'0 0.0
2018-Jun-28 16:28N 34°39' E 135°24'0 0.0
2018-Jun-28 15:58N 34°39' E 135°24'0 0.0
2018-Jun-28 15:28N 34°39' E 135°24'0 0.0
2018-Jun-28 14:58N 34°39' E 135°24'0 0.0
2018-Jun-28 14:28N 34°39' E 135°24'0 0.0
2018-Jun-28 13:58N 34°39' E 135°24'0 0.0
2018-Jun-28 13:28N 34°39' E 135°24'0 0.3
2018-Jun-28 13:01N 34°39' E 135°24'4 8.5
2018-Jun-28 12:31N 34°36' E 135°20'816.6
2018-Jun-28 12:01N 34°30' E 135°13'1020.3
2018-Jun-28 11:31N 34°22' E 135°05'714.6
2018-Jun-28 11:00N 34°17' E 134°59'918.5
2018-Jun-28 10:30N 34°07' E 134°59'1020.3
2018-Jun-28 10:00N 33°57' E 134°58'1120.0
2018-Jun-28 09:29N 33°47' E 134°55'  

Dump ship's entire track history